sensor_id;sensor_type;location;lat;lon;timestamp;P1;durP1;ratioP1;P2;durP2;ratioP2
6358;SDS011;3212;51.460;11.868;2023-09-19T00:02:41;3.20;;;2.23;;
6358;SDS011;3212;51.460;11.868;2023-09-19T00:06:04;1.90;;;1.70;;
6358;SDS011;3212;51.460;11.868;2023-09-19T00:09:26;5.97;;;2.40;;
6358;SDS011;3212;51.460;11.868;2023-09-19T00:12:48;3.60;;;1.93;;
6358;SDS011;3212;51.460;11.868;2023-09-19T00:16:12;3.78;;;1.98;;
6358;SDS011;3212;51.460;11.868;2023-09-19T00:19:35;3.50;;;1.90;;
6358;SDS011;3212;51.460;11.868;2023-09-19T00:22:57;3.50;;;2.10;;
6358;SDS011;3212;51.460;11.868;2023-09-19T00:26:19;3.47;;;2.20;;
6358;SDS011;3212;51.460;11.868;2023-09-19T00:29:42;6.87;;;1.87;;
6358;SDS011;3212;51.460;11.868;2023-09-19T00:33:04;4.20;;;2.03;;
6358;SDS011;3212;51.460;11.868;2023-09-19T00:36:27;6.40;;;2.20;;
6358;SDS011;3212;51.460;11.868;2023-09-19T00:39:50;4.93;;;2.40;;
6358;SDS011;3212;51.460;11.868;2023-09-19T00:43:12;2.90;;;1.90;;
6358;SDS011;3212;51.460;11.868;2023-09-19T00:46:35;4.17;;;2.63;;
6358;SDS011;3212;51.460;11.868;2023-09-19T00:49:57;2.33;;;1.90;;
6358;SDS011;3212;51.460;11.868;2023-09-19T00:53:21;3.40;;;2.27;;
6358;SDS011;3212;51.460;11.868;2023-09-19T00:56:45;3.10;;;2.03;;
6358;SDS011;3212;51.460;11.868;2023-09-19T01:00:07;2.43;;;2.20;;
6358;SDS011;3212;51.460;11.868;2023-09-19T01:03:30;2.70;;;2.30;;
6358;SDS011;3212;51.460;11.868;2023-09-19T01:06:53;3.03;;;1.70;;
6358;SDS011;3212;51.460;11.868;2023-09-19T01:10:17;4.30;;;2.17;;
6358;SDS011;3212;51.460;11.868;2023-09-19T01:13:44;3.10;;;2.00;;
6358;SDS011;3212;51.460;11.868;2023-09-19T01:17:06;3.50;;;1.60;;
6358;SDS011;3212;51.460;11.868;2023-09-19T01:20:32;4.10;;;2.00;;
6358;SDS011;3212;51.460;11.868;2023-09-19T01:24:01;2.10;;;1.80;;
6358;SDS011;3212;51.460;11.868;2023-09-19T01:27:25;3.10;;;1.90;;
6358;SDS011;3212;51.460;11.868;2023-09-19T01:30:46;2.30;;;1.40;;
6358;SDS011;3212;51.460;11.868;2023-09-19T01:34:09;1.97;;;1.77;;
6358;SDS011;3212;51.460;11.868;2023-09-19T01:37:31;2.70;;;1.80;;
6358;SDS011;3212;51.460;11.868;2023-09-19T01:40:57;3.13;;;2.00;;
6358;SDS011;3212;51.460;11.868;2023-09-19T01:47:59;3.73;;;1.87;;
6358;SDS011;3212;51.460;11.868;2023-09-19T01:51:21;3.23;;;1.93;;
6358;SDS011;3212;51.460;11.868;2023-09-19T01:54:46;1.70;;;1.60;;
6358;SDS011;3212;51.460;11.868;2023-09-19T01:58:14;4.23;;;2.10;;
6358;SDS011;3212;51.460;11.868;2023-09-19T02:01:36;3.00;;;2.20;;
6358;SDS011;3212;51.460;11.868;2023-09-19T02:04:59;3.33;;;1.70;;
6358;SDS011;3212;51.460;11.868;2023-09-19T02:08:23;3.80;;;1.77;;
6358;SDS011;3212;51.460;11.868;2023-09-19T02:11:46;3.83;;;1.77;;
6358;SDS011;3212;51.460;11.868;2023-09-19T02:15:09;2.13;;;1.70;;
6358;SDS011;3212;51.460;11.868;2023-09-19T02:18:32;2.47;;;1.60;;
6358;SDS011;3212;51.460;11.868;2023-09-19T02:21:54;3.33;;;1.60;;
6358;SDS011;3212;51.460;11.868;2023-09-19T02:25:16;4.77;;;2.00;;
6358;SDS011;3212;51.460;11.868;2023-09-19T02:28:39;3.90;;;1.90;;
6358;SDS011;3212;51.460;11.868;2023-09-19T02:32:02;4.30;;;1.97;;
6358;SDS011;3212;51.460;11.868;2023-09-19T02:35:25;2.73;;;1.50;;
6358;SDS011;3212;51.460;11.868;2023-09-19T02:38:48;2.10;;;1.50;;
6358;SDS011;3212;51.460;11.868;2023-09-19T02:42:10;6.13;;;2.00;;
6358;SDS011;3212;51.460;11.868;2023-09-19T02:45:32;4.40;;;1.60;;
6358;SDS011;3212;51.460;11.868;2023-09-19T02:48:55;2.83;;;2.10;;
6358;SDS011;3212;51.460;11.868;2023-09-19T02:52:18;4.13;;;1.83;;
6358;SDS011;3212;51.460;11.868;2023-09-19T02:55:41;1.90;;;1.70;;
6358;SDS011;3212;51.460;11.868;2023-09-19T02:59:03;6.03;;;1.53;;
6358;SDS011;3212;51.460;11.868;2023-09-19T03:02:26;2.50;;;1.50;;
6358;SDS011;3212;51.460;11.868;2023-09-19T03:05:49;2.03;;;1.20;;
6358;SDS011;3212;51.460;11.868;2023-09-19T03:09:11;2.27;;;1.40;;
6358;SDS011;3212;51.460;11.868;2023-09-19T03:12:34;1.67;;;1.47;;
6358;SDS011;3212;51.460;11.868;2023-09-19T03:15:57;5.70;;;1.53;;
6358;SDS011;3212;51.460;11.868;2023-09-19T03:19:20;2.60;;;1.30;;
6358;SDS011;3212;51.460;11.868;2023-09-19T03:22:43;3.43;;;1.67;;
6358;SDS011;3212;51.460;11.868;2023-09-19T03:26:05;1.53;;;1.23;;
6358;SDS011;3212;51.460;11.868;2023-09-19T03:29:28;1.60;;;1.50;;
6358;SDS011;3212;51.460;11.868;2023-09-19T03:32:50;1.63;;;1.50;;
6358;SDS011;3212;51.460;11.868;2023-09-19T03:36:13;2.70;;;1.70;;
6358;SDS011;3212;51.460;11.868;2023-09-19T03:39:36;3.27;;;1.70;;
6358;SDS011;3212;51.460;11.868;2023-09-19T03:43:00;2.10;;;1.50;;
6358;SDS011;3212;51.460;11.868;2023-09-19T03:46:20;2.33;;;1.60;;
6358;SDS011;3212;51.460;11.868;2023-09-19T03:49:44;2.40;;;1.50;;
6358;SDS011;3212;51.460;11.868;2023-09-19T03:53:07;2.57;;;1.67;;
6358;SDS011;3212;51.460;11.868;2023-09-19T03:56:29;4.63;;;1.80;;
6358;SDS011;3212;51.460;11.868;2023-09-19T03:59:52;2.20;;;1.63;;
6358;SDS011;3212;51.460;11.868;2023-09-19T04:03:15;2.03;;;1.77;;
6358;SDS011;3212;51.460;11.868;2023-09-19T04:06:38;2.90;;;1.40;;
6358;SDS011;3212;51.460;11.868;2023-09-19T04:10:01;3.90;;;1.60;;
6358;SDS011;3212;51.460;11.868;2023-09-19T04:13:23;3.00;;;1.60;;
6358;SDS011;3212;51.460;11.868;2023-09-19T04:16:46;2.47;;;1.57;;
6358;SDS011;3212;51.460;11.868;2023-09-19T04:20:09;3.00;;;1.73;;
6358;SDS011;3212;51.460;11.868;2023-09-19T04:23:32;2.17;;;1.57;;
6358;SDS011;3212;51.460;11.868;2023-09-19T04:26:54;1.87;;;1.33;;
6358;SDS011;3212;51.460;11.868;2023-09-19T04:30:16;4.33;;;1.63;;
6358;SDS011;3212;51.460;11.868;2023-09-19T04:33:38;1.67;;;1.30;;
6358;SDS011;3212;51.460;11.868;2023-09-19T04:37:02;1.73;;;1.40;;
6358;SDS011;3212;51.460;11.868;2023-09-19T04:40:25;5.30;;;1.60;;
6358;SDS011;3212;51.460;11.868;2023-09-19T04:43:48;1.60;;;1.50;;
6358;SDS011;3212;51.460;11.868;2023-09-19T04:47:10;2.40;;;1.67;;
6358;SDS011;3212;51.460;11.868;2023-09-19T04:50:33;5.13;;;1.50;;
6358;SDS011;3212;51.460;11.868;2023-09-19T04:53:55;2.30;;;1.50;;
6358;SDS011;3212;51.460;11.868;2023-09-19T04:57:18;1.80;;;1.70;;
6358;SDS011;3212;51.460;11.868;2023-09-19T05:00:41;3.30;;;1.80;;
6358;SDS011;3212;51.460;11.868;2023-09-19T05:04:04;4.50;;;1.80;;
6358;SDS011;3212;51.460;11.868;2023-09-19T05:07:26;2.10;;;1.90;;
6358;SDS011;3212;51.460;11.868;2023-09-19T05:10:49;1.90;;;1.70;;
6358;SDS011;3212;51.460;11.868;2023-09-19T05:14:12;2.33;;;1.80;;
6358;SDS011;3212;51.460;11.868;2023-09-19T05:17:35;5.20;;;2.43;;
6358;SDS011;3212;51.460;11.868;2023-09-19T05:20:57;4.80;;;2.10;;
6358;SDS011;3212;51.460;11.868;2023-09-19T05:24:20;4.47;;;2.07;;
6358;SDS011;3212;51.460;11.868;2023-09-19T05:27:43;2.40;;;1.60;;
6358;SDS011;3212;51.460;11.868;2023-09-19T05:31:06;2.40;;;1.97;;
6358;SDS011;3212;51.460;11.868;2023-09-19T05:34:29;3.40;;;2.03;;
6358;SDS011;3212;51.460;11.868;2023-09-19T05:37:51;2.40;;;1.57;;
6358;SDS011;3212;51.460;11.868;2023-09-19T05:41:14;2.03;;;1.80;;
6358;SDS011;3212;51.460;11.868;2023-09-19T05:44:36;4.43;;;1.90;;
6358;SDS011;3212;51.460;11.868;2023-09-19T05:48:07;2.10;;;1.43;;
6358;SDS011;3212;51.460;11.868;2023-09-19T05:51:27;2.13;;;1.80;;
6358;SDS011;3212;51.460;11.868;2023-09-19T05:54:50;1.40;;;1.30;;
6358;SDS011;3212;51.460;11.868;2023-09-19T05:58:13;4.47;;;1.37;;
6358;SDS011;3212;51.460;11.868;2023-09-19T06:01:35;2.10;;;1.30;;
6358;SDS011;3212;51.460;11.868;2023-09-19T06:04:58;3.23;;;1.50;;
6358;SDS011;3212;51.460;11.868;2023-09-19T06:08:21;1.80;;;1.40;;
6358;SDS011;3212;51.460;11.868;2023-09-19T06:11:43;3.43;;;1.60;;
6358;SDS011;3212;51.460;11.868;2023-09-19T06:15:07;4.53;;;1.40;;
6358;SDS011;3212;51.460;11.868;2023-09-19T06:18:30;2.77;;;1.43;;
6358;SDS011;3212;51.460;11.868;2023-09-19T06:21:53;5.20;;;1.60;;
6358;SDS011;3212;51.460;11.868;2023-09-19T06:25:15;3.07;;;1.47;;
6358;SDS011;3212;51.460;11.868;2023-09-19T06:32:26;6.80;;;2.20;;
6358;SDS011;3212;51.460;11.868;2023-09-19T06:35:43;2.83;;;1.40;;
6358;SDS011;3212;51.460;11.868;2023-09-19T06:39:06;5.20;;;1.60;;
6358;SDS011;3212;51.460;11.868;2023-09-19T06:42:28;2.27;;;1.63;;
6358;SDS011;3212;51.460;11.868;2023-09-19T06:45:50;3.97;;;1.43;;
6358;SDS011;3212;51.460;11.868;2023-09-19T06:49:13;2.37;;;1.50;;
6358;SDS011;3212;51.460;11.868;2023-09-19T06:52:35;3.50;;;1.60;;
6358;SDS011;3212;51.460;11.868;2023-09-19T06:55:59;4.80;;;1.87;;
6358;SDS011;3212;51.460;11.868;2023-09-19T06:59:21;1.87;;;1.57;;
6358;SDS011;3212;51.460;11.868;2023-09-19T07:02:44;2.13;;;1.60;;
6358;SDS011;3212;51.460;11.868;2023-09-19T07:06:06;2.33;;;1.87;;
6358;SDS011;3212;51.460;11.868;2023-09-19T07:09:29;5.10;;;1.70;;
6358;SDS011;3212;51.460;11.868;2023-09-19T07:12:56;4.57;;;1.80;;
6358;SDS011;3212;51.460;11.868;2023-09-19T07:16:18;4.60;;;1.90;;
6358;SDS011;3212;51.460;11.868;2023-09-19T07:19:41;7.77;;;2.10;;
6358;SDS011;3212;51.460;11.868;2023-09-19T07:23:03;1.80;;;1.53;;
6358;SDS011;3212;51.460;11.868;2023-09-19T07:26:26;4.83;;;1.80;;
6358;SDS011;3212;51.460;11.868;2023-09-19T07:29:49;4.90;;;1.73;;
6358;SDS011;3212;51.460;11.868;2023-09-19T07:33:12;3.23;;;2.00;;
6358;SDS011;3212;51.460;11.868;2023-09-19T07:36:34;3.80;;;1.70;;
6358;SDS011;3212;51.460;11.868;2023-09-19T07:39:57;5.07;;;1.50;;
6358;SDS011;3212;51.460;11.868;2023-09-19T07:43:19;4.20;;;1.63;;
6358;SDS011;3212;51.460;11.868;2023-09-19T07:46:41;2.90;;;1.37;;
6358;SDS011;3212;51.460;11.868;2023-09-19T07:50:05;2.63;;;1.20;;
6358;SDS011;3212;51.460;11.868;2023-09-19T07:53:27;2.85;;;1.20;;
6358;SDS011;3212;51.460;11.868;2023-09-19T07:56:50;5.13;;;1.70;;
6358;SDS011;3212;51.460;11.868;2023-09-19T08:00:12;3.63;;;1.40;;
6358;SDS011;3212;51.460;11.868;2023-09-19T08:03:35;2.83;;;1.37;;
6358;SDS011;3212;51.460;11.868;2023-09-19T08:06:57;3.10;;;1.77;;
6358;SDS011;3212;51.460;11.868;2023-09-19T08:10:20;2.27;;;1.77;;
6358;SDS011;3212;51.460;11.868;2023-09-19T08:13:42;3.43;;;1.40;;
6358;SDS011;3212;51.460;11.868;2023-09-19T08:17:05;1.63;;;1.20;;
6358;SDS011;3212;51.460;11.868;2023-09-19T08:20:28;2.60;;;1.50;;
6358;SDS011;3212;51.460;11.868;2023-09-19T08:23:50;3.37;;;1.20;;
6358;SDS011;3212;51.460;11.868;2023-09-19T08:27:13;3.80;;;1.50;;
6358;SDS011;3212;51.460;11.868;2023-09-19T08:30:35;3.37;;;1.30;;
6358;SDS011;3212;51.460;11.868;2023-09-19T08:33:58;4.27;;;1.53;;
6358;SDS011;3212;51.460;11.868;2023-09-19T08:37:20;2.97;;;1.70;;
6358;SDS011;3212;51.460;11.868;2023-09-19T08:40:42;5.37;;;2.30;;
6358;SDS011;3212;51.460;11.868;2023-09-19T08:44:05;3.83;;;1.33;;
6358;SDS011;3212;51.460;11.868;2023-09-19T08:47:34;2.60;;;1.37;;
6358;SDS011;3212;51.460;11.868;2023-09-19T08:50:56;3.33;;;1.80;;
6358;SDS011;3212;51.460;11.868;2023-09-19T08:54:21;3.73;;;1.60;;
6358;SDS011;3212;51.460;11.868;2023-09-19T08:57:43;3.00;;;1.70;;
6358;SDS011;3212;51.460;11.868;2023-09-19T09:01:05;2.53;;;1.60;;
6358;SDS011;3212;51.460;11.868;2023-09-19T09:04:29;3.00;;;1.37;;
6358;SDS011;3212;51.460;11.868;2023-09-19T09:07:52;3.10;;;1.60;;
6358;SDS011;3212;51.460;11.868;2023-09-19T09:11:14;4.00;;;1.83;;
6358;SDS011;3212;51.460;11.868;2023-09-19T09:14:37;4.63;;;1.70;;
6358;SDS011;3212;51.460;11.868;2023-09-19T09:18:00;2.00;;;1.37;;
6358;SDS011;3212;51.460;11.868;2023-09-19T09:21:25;1.60;;;1.40;;
6358;SDS011;3212;51.460;11.868;2023-09-19T09:24:52;2.87;;;1.70;;
6358;SDS011;3212;51.460;11.868;2023-09-19T09:28:19;2.87;;;1.70;;
6358;SDS011;3212;51.460;11.868;2023-09-19T09:31:41;4.73;;;1.70;;
6358;SDS011;3212;51.460;11.868;2023-09-19T09:35:07;3.10;;;1.40;;
6358;SDS011;3212;51.460;11.868;2023-09-19T09:38:27;3.27;;;1.50;;
6358;SDS011;3212;51.460;11.868;2023-09-19T09:41:49;2.97;;;1.63;;
6358;SDS011;3212;51.460;11.868;2023-09-19T09:45:14;3.50;;;2.00;;
6358;SDS011;3212;51.460;11.868;2023-09-19T09:48:35;4.63;;;1.87;;
6358;SDS011;3212;51.460;11.868;2023-09-19T09:52:00;7.60;;;1.80;;
6358;SDS011;3212;51.460;11.868;2023-09-19T09:55:22;2.60;;;1.57;;
6358;SDS011;3212;51.460;11.868;2023-09-19T09:58:50;4.87;;;1.97;;
6358;SDS011;3212;51.460;11.868;2023-09-19T10:02:13;5.20;;;1.80;;
6358;SDS011;3212;51.460;11.868;2023-09-19T10:05:35;1.90;;;1.60;;
6358;SDS011;3212;51.460;11.868;2023-09-19T10:08:57;3.10;;;1.50;;
6358;SDS011;3212;51.460;11.868;2023-09-19T10:12:33;4.03;;;1.73;;
6358;SDS011;3212;51.460;11.868;2023-09-19T10:15:55;5.40;;;1.87;;
6358;SDS011;3212;51.460;11.868;2023-09-19T10:19:23;2.37;;;1.83;;
6358;SDS011;3212;51.460;11.868;2023-09-19T10:22:43;4.70;;;1.43;;
6358;SDS011;3212;51.460;11.868;2023-09-19T10:26:06;4.33;;;2.30;;
6358;SDS011;3212;51.460;11.868;2023-09-19T10:29:29;3.10;;;1.43;;
6358;SDS011;3212;51.460;11.868;2023-09-19T10:32:56;4.60;;;1.60;;
6358;SDS011;3212;51.460;11.868;2023-09-19T10:36:16;4.73;;;1.80;;
6358;SDS011;3212;51.460;11.868;2023-09-19T10:39:39;3.50;;;2.00;;
6358;SDS011;3212;51.460;11.868;2023-09-19T10:43:02;8.40;;;1.90;;
6358;SDS011;3212;51.460;11.868;2023-09-19T10:46:27;4.97;;;1.47;;
6358;SDS011;3212;51.460;11.868;2023-09-19T10:49:49;3.50;;;1.80;;
6358;SDS011;3212;51.460;11.868;2023-09-19T10:53:12;2.53;;;1.70;;
6358;SDS011;3212;51.460;11.868;2023-09-19T10:56:36;3.37;;;1.43;;
6358;SDS011;3212;51.460;11.868;2023-09-19T11:00:07;3.50;;;1.50;;
6358;SDS011;3212;51.460;11.868;2023-09-19T11:03:37;2.17;;;1.60;;
6358;SDS011;3212;51.460;11.868;2023-09-19T11:17:50;2.67;;;1.57;;
6358;SDS011;3212;51.460;11.868;2023-09-19T11:24:47;5.27;;;1.90;;
6358;SDS011;3212;51.460;11.868;2023-09-19T11:31:49;2.10;;;1.33;;
6358;SDS011;3212;51.460;11.868;2023-09-19T11:35:12;3.77;;;1.67;;
6358;SDS011;3212;51.460;11.868;2023-09-19T11:46:01;2.73;;;1.33;;
6358;SDS011;3212;51.460;11.868;2023-09-19T11:49:26;2.70;;;1.43;;
6358;SDS011;3212;51.460;11.868;2023-09-19T11:52:47;2.23;;;1.30;;
6358;SDS011;3212;51.460;11.868;2023-09-19T11:56:11;2.57;;;1.17;;
6358;SDS011;3212;51.460;11.868;2023-09-19T11:59:33;3.83;;;1.80;;
6358;SDS011;3212;51.460;11.868;2023-09-19T12:02:55;3.07;;;1.50;;
6358;SDS011;3212;51.460;11.868;2023-09-19T12:06:19;3.33;;;1.37;;
6358;SDS011;3212;51.460;11.868;2023-09-19T12:09:42;3.83;;;1.50;;
6358;SDS011;3212;51.460;11.868;2023-09-19T12:13:04;4.30;;;1.77;;
6358;SDS011;3212;51.460;11.868;2023-09-19T12:16:27;2.80;;;1.40;;
6358;SDS011;3212;51.460;11.868;2023-09-19T12:19:53;3.00;;;1.40;;
6358;SDS011;3212;51.460;11.868;2023-09-19T12:23:14;2.63;;;1.60;;
6358;SDS011;3212;51.460;11.868;2023-09-19T12:26:38;2.60;;;1.50;;
6358;SDS011;3212;51.460;11.868;2023-09-19T12:30:01;2.77;;;1.37;;
6358;SDS011;3212;51.460;11.868;2023-09-19T12:33:24;2.20;;;1.40;;
6358;SDS011;3212;51.460;11.868;2023-09-19T12:36:47;2.90;;;1.70;;
6358;SDS011;3212;51.460;11.868;2023-09-19T12:40:09;4.47;;;1.80;;
6358;SDS011;3212;51.460;11.868;2023-09-19T12:43:37;2.70;;;1.50;;
6358;SDS011;3212;51.460;11.868;2023-09-19T12:47:00;3.13;;;1.90;;
6358;SDS011;3212;51.460;11.868;2023-09-19T12:50:22;7.27;;;1.83;;
6358;SDS011;3212;51.460;11.868;2023-09-19T12:53:46;3.83;;;2.23;;
6358;SDS011;3212;51.460;11.868;2023-09-19T12:57:09;2.70;;;1.80;;
6358;SDS011;3212;51.460;11.868;2023-09-19T13:00:33;3.50;;;1.63;;
6358;SDS011;3212;51.460;11.868;2023-09-19T13:11:03;2.50;;;1.80;;
6358;SDS011;3212;51.460;11.868;2023-09-19T13:14:26;2.60;;;2.10;;
6358;SDS011;3212;51.460;11.868;2023-09-19T13:17:49;2.80;;;2.00;;
6358;SDS011;3212;51.460;11.868;2023-09-19T13:21:12;4.17;;;2.50;;
6358;SDS011;3212;51.460;11.868;2023-09-19T13:24:35;4.80;;;2.40;;
6358;SDS011;3212;51.460;11.868;2023-09-19T13:27:57;4.00;;;1.93;;
6358;SDS011;3212;51.460;11.868;2023-09-19T13:31:20;4.50;;;2.03;;
6358;SDS011;3212;51.460;11.868;2023-09-19T13:34:45;3.50;;;2.13;;
6358;SDS011;3212;51.460;11.868;2023-09-19T13:38:07;3.20;;;1.90;;
6358;SDS011;3212;51.460;11.868;2023-09-19T13:41:30;5.23;;;2.30;;
6358;SDS011;3212;51.460;11.868;2023-09-19T13:44:53;6.40;;;2.10;;
6358;SDS011;3212;51.460;11.868;2023-09-19T13:48:15;3.80;;;2.00;;
6358;SDS011;3212;51.460;11.868;2023-09-19T13:51:38;2.53;;;1.70;;
6358;SDS011;3212;51.460;11.868;2023-09-19T13:55:01;3.83;;;2.20;;
6358;SDS011;3212;51.460;11.868;2023-09-19T13:58:23;2.60;;;1.97;;
6358;SDS011;3212;51.460;11.868;2023-09-19T14:01:46;3.43;;;2.13;;
6358;SDS011;3212;51.460;11.868;2023-09-19T14:05:08;3.37;;;1.73;;
6358;SDS011;3212;51.460;11.868;2023-09-19T14:08:31;3.77;;;2.00;;
6358;SDS011;3212;51.460;11.868;2023-09-19T14:11:54;3.13;;;1.83;;
6358;SDS011;3212;51.460;11.868;2023-09-19T14:15:19;5.07;;;2.12;;
6358;SDS011;3212;51.460;11.868;2023-09-19T14:18:41;4.03;;;1.80;;
6358;SDS011;3212;51.460;11.868;2023-09-19T14:22:05;5.20;;;2.10;;
6358;SDS011;3212;51.460;11.868;2023-09-19T14:25:27;2.40;;;1.90;;
6358;SDS011;3212;51.460;11.868;2023-09-19T14:28:50;5.20;;;2.20;;
6358;SDS011;3212;51.460;11.868;2023-09-19T14:32:13;2.70;;;2.00;;
6358;SDS011;3212;51.460;11.868;2023-09-19T14:35:36;4.00;;;1.73;;
6358;SDS011;3212;51.460;11.868;2023-09-19T14:38:59;4.70;;;2.23;;
6358;SDS011;3212;51.460;11.868;2023-09-19T14:42:21;3.70;;;1.90;;
6358;SDS011;3212;51.460;11.868;2023-09-19T14:45:45;5.80;;;2.20;;
6358;SDS011;3212;51.460;11.868;2023-09-19T14:49:07;3.60;;;1.90;;
6358;SDS011;3212;51.460;11.868;2023-09-19T14:52:30;5.10;;;1.97;;
6358;SDS011;3212;51.460;11.868;2023-09-19T14:55:54;3.93;;;2.10;;
6358;SDS011;3212;51.460;11.868;2023-09-19T14:59:16;4.23;;;2.20;;
6358;SDS011;3212;51.460;11.868;2023-09-19T15:02:39;2.80;;;1.70;;
6358;SDS011;3212;51.460;11.868;2023-09-19T15:06:03;4.10;;;2.00;;
6358;SDS011;3212;51.460;11.868;2023-09-19T15:09:26;3.63;;;1.83;;
6358;SDS011;3212;51.460;11.868;2023-09-19T15:12:50;4.03;;;2.20;;
6358;SDS011;3212;51.460;11.868;2023-09-19T15:16:11;3.83;;;2.03;;
6358;SDS011;3212;51.460;11.868;2023-09-19T15:19:34;6.40;;;2.57;;
6358;SDS011;3212;51.460;11.868;2023-09-19T15:22:56;5.37;;;2.10;;
6358;SDS011;3212;51.460;11.868;2023-09-19T15:26:19;2.80;;;1.90;;
6358;SDS011;3212;51.460;11.868;2023-09-19T15:29:49;4.83;;;2.43;;
6358;SDS011;3212;51.460;11.868;2023-09-19T15:33:11;4.43;;;2.20;;
6358;SDS011;3212;51.460;11.868;2023-09-19T15:36:34;3.37;;;2.10;;
6358;SDS011;3212;51.460;11.868;2023-09-19T15:39:57;6.87;;;1.97;;
6358;SDS011;3212;51.460;11.868;2023-09-19T15:43:20;4.70;;;2.20;;
6358;SDS011;3212;51.460;11.868;2023-09-19T15:46:43;3.50;;;2.13;;
6358;SDS011;3212;51.460;11.868;2023-09-19T15:50:05;4.23;;;2.20;;
6358;SDS011;3212;51.460;11.868;2023-09-19T15:53:30;3.97;;;1.90;;
6358;SDS011;3212;51.460;11.868;2023-09-19T15:57:07;2.27;;;1.80;;
6358;SDS011;3212;51.460;11.868;2023-09-19T16:00:29;5.40;;;2.00;;
6358;SDS011;3212;51.460;11.868;2023-09-19T16:03:53;2.10;;;1.70;;
6358;SDS011;3212;51.460;11.868;2023-09-19T16:07:15;4.80;;;1.87;;
6358;SDS011;3212;51.460;11.868;2023-09-19T16:10:37;2.67;;;1.97;;
6358;SDS011;3212;51.460;11.868;2023-09-19T16:14:00;5.47;;;2.10;;
6358;SDS011;3212;51.460;11.868;2023-09-19T16:17:23;3.83;;;2.10;;
6358;SDS011;3212;51.460;11.868;2023-09-19T16:20:45;5.60;;;2.70;;
6358;SDS011;3212;51.460;11.868;2023-09-19T16:24:08;3.13;;;2.00;;
6358;SDS011;3212;51.460;11.868;2023-09-19T16:27:31;3.70;;;2.17;;
6358;SDS011;3212;51.460;11.868;2023-09-19T16:30:53;3.60;;;2.13;;
6358;SDS011;3212;51.460;11.868;2023-09-19T16:34:16;4.07;;;2.00;;
6358;SDS011;3212;51.460;11.868;2023-09-19T16:37:39;6.40;;;2.13;;
6358;SDS011;3212;51.460;11.868;2023-09-19T16:41:01;3.07;;;2.10;;
6358;SDS011;3212;51.460;11.868;2023-09-19T16:44:24;3.50;;;2.83;;
6358;SDS011;3212;51.460;11.868;2023-09-19T16:47:46;3.50;;;2.13;;
6358;SDS011;3212;51.460;11.868;2023-09-19T16:51:10;4.40;;;2.27;;
6358;SDS011;3212;51.460;11.868;2023-09-19T16:54:31;3.30;;;1.83;;
6358;SDS011;3212;51.460;11.868;2023-09-19T16:57:54;2.60;;;1.80;;
6358;SDS011;3212;51.460;11.868;2023-09-19T17:01:17;5.53;;;1.93;;
6358;SDS011;3212;51.460;11.868;2023-09-19T17:04:40;10.73;;;2.50;;
6358;SDS011;3212;51.460;11.868;2023-09-19T17:08:03;5.00;;;2.10;;
6358;SDS011;3212;51.460;11.868;2023-09-19T17:11:25;5.37;;;2.00;;
6358;SDS011;3212;51.460;11.868;2023-09-19T17:14:48;4.63;;;2.30;;
6358;SDS011;3212;51.460;11.868;2023-09-19T17:18:10;2.80;;;1.73;;
6358;SDS011;3212;51.460;11.868;2023-09-19T17:21:33;3.17;;;2.00;;
6358;SDS011;3212;51.460;11.868;2023-09-19T17:24:55;5.17;;;2.00;;
6358;SDS011;3212;51.460;11.868;2023-09-19T17:28:18;5.47;;;2.40;;
6358;SDS011;3212;51.460;11.868;2023-09-19T17:31:41;3.17;;;2.20;;
6358;SDS011;3212;51.460;11.868;2023-09-19T17:35:03;3.63;;;2.10;;
6358;SDS011;3212;51.460;11.868;2023-09-19T17:38:26;3.10;;;1.87;;
6358;SDS011;3212;51.460;11.868;2023-09-19T17:41:48;4.10;;;1.80;;
6358;SDS011;3212;51.460;11.868;2023-09-19T17:45:11;3.30;;;2.20;;
6358;SDS011;3212;51.460;11.868;2023-09-19T17:48:33;7.10;;;2.70;;
6358;SDS011;3212;51.460;11.868;2023-09-19T17:51:56;4.70;;;2.70;;
6358;SDS011;3212;51.460;11.868;2023-09-19T17:55:19;4.67;;;2.93;;
6358;SDS011;3212;51.460;11.868;2023-09-19T17:58:42;4.67;;;2.20;;
6358;SDS011;3212;51.460;11.868;2023-09-19T18:02:04;6.10;;;2.20;;
6358;SDS011;3212;51.460;11.868;2023-09-19T18:05:27;8.93;;;2.67;;
6358;SDS011;3212;51.460;11.868;2023-09-19T18:08:49;4.93;;;2.00;;
6358;SDS011;3212;51.460;11.868;2023-09-19T18:12:12;7.80;;;2.37;;
6358;SDS011;3212;51.460;11.868;2023-09-19T18:15:35;4.00;;;2.53;;
6358;SDS011;3212;51.460;11.868;2023-09-19T18:18:57;3.67;;;2.10;;
6358;SDS011;3212;51.460;11.868;2023-09-19T18:22:20;3.70;;;1.90;;
6358;SDS011;3212;51.460;11.868;2023-09-19T18:25:44;5.60;;;1.90;;
6358;SDS011;3212;51.460;11.868;2023-09-19T18:29:09;4.33;;;1.87;;
6358;SDS011;3212;51.460;11.868;2023-09-19T18:32:32;8.67;;;2.33;;
6358;SDS011;3212;51.460;11.868;2023-09-19T18:35:59;7.05;;;2.40;;
6358;SDS011;3212;51.460;11.868;2023-09-19T18:39:17;4.77;;;2.50;;
6358;SDS011;3212;51.460;11.868;2023-09-19T18:42:40;3.67;;;2.03;;
6358;SDS011;3212;51.460;11.868;2023-09-19T18:46:03;4.67;;;2.20;;
6358;SDS011;3212;51.460;11.868;2023-09-19T18:49:27;3.23;;;1.93;;
6358;SDS011;3212;51.460;11.868;2023-09-19T18:52:49;4.73;;;2.10;;
6358;SDS011;3212;51.460;11.868;2023-09-19T18:56:12;4.65;;;2.50;;
6358;SDS011;3212;51.460;11.868;2023-09-19T18:59:35;8.60;;;2.43;;
6358;SDS011;3212;51.460;11.868;2023-09-19T19:02:58;7.97;;;2.93;;
6358;SDS011;3212;51.460;11.868;2023-09-19T19:06:21;5.40;;;2.10;;
6358;SDS011;3212;51.460;11.868;2023-09-19T19:09:43;3.60;;;1.83;;
6358;SDS011;3212;51.460;11.868;2023-09-19T19:13:06;8.23;;;1.87;;
6358;SDS011;3212;51.460;11.868;2023-09-19T19:16:29;7.47;;;2.47;;
6358;SDS011;3212;51.460;11.868;2023-09-19T19:19:51;4.00;;;2.23;;
6358;SDS011;3212;51.460;11.868;2023-09-19T19:23:14;3.20;;;1.80;;
6358;SDS011;3212;51.460;11.868;2023-09-19T19:26:37;3.70;;;2.07;;
6358;SDS011;3212;51.460;11.868;2023-09-19T19:29:59;4.13;;;2.50;;
6358;SDS011;3212;51.460;11.868;2023-09-19T19:33:22;6.10;;;2.10;;
6358;SDS011;3212;51.460;11.868;2023-09-19T19:36:45;5.17;;;2.30;;
6358;SDS011;3212;51.460;11.868;2023-09-19T19:40:08;3.90;;;2.30;;
6358;SDS011;3212;51.460;11.868;2023-09-19T19:43:31;3.83;;;3.03;;
6358;SDS011;3212;51.460;11.868;2023-09-19T19:46:53;10.33;;;2.60;;
6358;SDS011;3212;51.460;11.868;2023-09-19T19:50:16;6.40;;;2.20;;
6358;SDS011;3212;51.460;11.868;2023-09-19T19:53:38;6.30;;;2.20;;
6358;SDS011;3212;51.460;11.868;2023-09-19T19:57:01;4.37;;;2.37;;
6358;SDS011;3212;51.460;11.868;2023-09-19T20:00:24;3.37;;;2.10;;
6358;SDS011;3212;51.460;11.868;2023-09-19T20:03:46;6.57;;;2.20;;
6358;SDS011;3212;51.460;11.868;2023-09-19T20:07:09;3.80;;;2.20;;
6358;SDS011;3212;51.460;11.868;2023-09-19T20:10:32;2.70;;;1.90;;
6358;SDS011;3212;51.460;11.868;2023-09-19T20:13:55;3.70;;;2.50;;
6358;SDS011;3212;51.460;11.868;2023-09-19T20:17:18;9.07;;;2.20;;
6358;SDS011;3212;51.460;11.868;2023-09-19T20:20:40;4.00;;;2.20;;
6358;SDS011;3212;51.460;11.868;2023-09-19T20:24:03;9.27;;;2.27;;
6358;SDS011;3212;51.460;11.868;2023-09-19T20:27:27;4.90;;;2.20;;
6358;SDS011;3212;51.460;11.868;2023-09-19T20:30:50;5.70;;;1.87;;
6358;SDS011;3212;51.460;11.868;2023-09-19T20:34:12;4.43;;;2.27;;
6358;SDS011;3212;51.460;11.868;2023-09-19T20:37:35;5.73;;;2.27;;
6358;SDS011;3212;51.460;11.868;2023-09-19T20:40:59;4.30;;;2.10;;
6358;SDS011;3212;51.460;11.868;2023-09-19T20:44:21;5.50;;;2.00;;
6358;SDS011;3212;51.460;11.868;2023-09-19T20:47:44;3.67;;;1.80;;
6358;SDS011;3212;51.460;11.868;2023-09-19T20:51:09;4.90;;;1.93;;
6358;SDS011;3212;51.460;11.868;2023-09-19T20:54:31;3.60;;;2.40;;
6358;SDS011;3212;51.460;11.868;2023-09-19T20:57:54;4.37;;;2.33;;
6358;SDS011;3212;51.460;11.868;2023-09-19T21:01:16;4.07;;;1.70;;
6358;SDS011;3212;51.460;11.868;2023-09-19T21:04:39;3.60;;;2.10;;
6358;SDS011;3212;51.460;11.868;2023-09-19T21:08:02;3.43;;;2.10;;
6358;SDS011;3212;51.460;11.868;2023-09-19T21:11:25;5.20;;;2.40;;
6358;SDS011;3212;51.460;11.868;2023-09-19T21:14:48;3.50;;;2.20;;
6358;SDS011;3212;51.460;11.868;2023-09-19T21:18:11;5.27;;;2.30;;
6358;SDS011;3212;51.460;11.868;2023-09-19T21:21:34;4.63;;;2.10;;